EST,Max TemperatureF,Mean TemperatureF,Min TemperatureF,Max Dew PointF,MeanDew PointF,Min DewpointF,Max Humidity, Mean Humidity, Min Humidity, Max Sea Level PressureIn, Mean Sea Level PressureIn, Min Sea Level PressureIn, Max VisibilityMiles, Mean VisibilityMiles, Min VisibilityMiles, Max Wind SpeedMPH, Mean Wind SpeedMPH, Max Gust SpeedMPH,PrecipitationIn, CloudCover, Events, WindDirDegrees
2013-11-1,63,58,53,61,56,41,93,74,55,29.67,29.39,29.17,10,8,2,25,14,38,0.76,7,Rain,199
2013-11-2,53,43,33,46,38,23,100,77,54,29.82,29.62,29.44,10,10,4,21,6,30,0.04,6,Rain,331
2013-11-3,38,32,26,21,17,14,69,57,44,30.35,30.10,29.84,10,10,10,18,9,25,0.00,1,,345
2013-11-4,38,28,17,21,17,13,92,68,44,30.71,30.59,30.39,10,10,10,22,5,30,0.00,0,,346
2013-11-5,40,28,15,28,21,13,92,68,44,30.71,30.61,30.45,10,10,10,13,4,21,0.00,0,,191
2013-11-6,53,43,33,42,35,29,89,70,50,30.44,30.20,29.88,10,10,10,17,8,28,T,5,Rain,196
2013-11-7,52,43,33,50,44,28,96,86,75,29.83,29.65,29.56,10,9,4,18,10,26,0.25,6,Rain,225
2013-11-8,41,36,31,29,25,22,82,66,50,29.77,29.70,29.65,10,10,10,17,8,26,T,6,,264
2013-11-9,36,33,29,27,23,19,92,72,52,30.06,29.95,29.78,10,9,3,17,6,24,T,8,Snow,319
2013-11-10,34,29,23,32,29,20,100,86,72,30.04,29.79,29.64,10,3,1,12,3,16,0.21,7,Rain-Snow,108
2013-11-11,35,33,31,32,30,28,100,88,75,29.92,29.80,29.64,10,9,1,15,6,21,T,8,,288
2013-11-12,34,28,22,32,23,13,96,77,58,29.97,29.84,29.72,10,8,2,18,10,30,0.02,6,Snow,250
2013-11-13,32,26,19,14,12,11,73,58,43,30.07,30.03,29.97,10,10,9,21,8,29,0.00,2,,276
2013-11-14,37,29,20,29,22,13,75,67,59,30.01,29.93,29.88,10,10,10,14,7,17,0.00,6,,206
2013-11-15,50,40,30,29,27,25,78,59,39,30.17,30.07,30.01,10,10,10,17,7,23,0.00,3,,211
2013-11-16,50,37,24,31,27,23,92,67,42,30.34,30.28,30.18,10,10,10,6,1,8,0.00,1,,192
2013-11-17,47,34,20,40,34,20,96,81,65,30.37,30.24,30.03,10,9,8,12,3,20,0.00,4,,173
2013-11-18,58,46,33,55,45,34,100,90,80,30.00,29.52,29.35,10,5,0,18,8,30,0.56,6,Fog-Rain,170
2013-11-19,40,35,29,34,21,12,92,69,45,30.03,29.72,29.49,10,10,7,24,11,36,T,6,Snow,290
2013-11-20,33,29,24,11,4,-2,50,37,23,30.54,30.36,30.06,10,10,10,22,13,35,0.00,1,,333
2013-11-21,47,33,19,20,14,7,81,50,19,30.56,30.46,30.30,10,10,10,9,2,14,0.00,0,,304
2013-11-22,38,28,18,29,23,15,92,66,40,30.28,29.99,29.71,10,9,2,10,2,15,T,5,Snow,249
2013-11-23,35,27,19,31,24,10,92,73,53,29.68,29.57,29.49,10,7,1,25,12,35,0.05,7,Snow,228
2013-11-24,20,18,16,14,10,5,80,68,56,29.70,29.50,29.43,10,5,0,25,14,36,T,7,Fog-Snow,287
2013-11-25,23,18,13,6,3,0,67,55,43,30.23,30.05,29.73,10,10,10,24,10,34,0.00,2,,271
2013-11-26,33,26,19,24,18,13,84,68,51,30.29,30.21,30.16,10,6,1,13,5,19,0.03,6,Snow,193
2013-11-27,56,43,29,54,40,26,100,93,85,30.20,29.56,29.09,10,4,1,17,10,29,1.82,8,Rain-Snow,142
2013-11-28,38,28,17,35,23,6,92,74,56,30.25,29.55,29.16,10,7,2,26,14,37,0.05,7,Rain-Snow,272
2013-11-29,22,16,9,8,6,4,84,66,47,30.67,30.44,30.26,10,10,10,18,7,24,0.00,2,,299
2013-11-30,22,13,4,12,7,2,87,70,52,30.76,30.65,30.42,10,10,10,9,3,13,0.00,3,,199